sensor_id;sensor_type;location;lat;lon;timestamp;P1;durP1;ratioP1;P2;durP2;ratioP2
3591;SDS011;1810;48.720;9.094;2023-04-29T00:00:04;848.42;;;791.70;;
3591;SDS011;1810;48.720;9.094;2023-04-29T00:02:34;832.55;;;777.67;;
3591;SDS011;1810;48.720;9.094;2023-04-29T00:05:04;857.65;;;800.20;;
3591;SDS011;1810;48.720;9.094;2023-04-29T00:07:33;845.25;;;789.47;;
3591;SDS011;1810;48.720;9.094;2023-04-29T00:10:02;835.13;;;779.55;;
3591;SDS011;1810;48.720;9.094;2023-04-29T00:12:33;832.38;;;777.55;;
3591;SDS011;1810;48.720;9.094;2023-04-29T00:15:01;838.75;;;782.95;;
3591;SDS011;1810;48.720;9.094;2023-04-29T00:17:31;833.70;;;779.25;;
3591;SDS011;1810;48.720;9.094;2023-04-29T00:19:59;834.42;;;779.53;;
3591;SDS011;1810;48.720;9.094;2023-04-29T00:22:28;833.80;;;778.65;;
3591;SDS011;1810;48.720;9.094;2023-04-29T00:24:56;834.92;;;780.03;;
3591;SDS011;1810;48.720;9.094;2023-04-29T00:27:26;811.25;;;758.53;;
3591;SDS011;1810;48.720;9.094;2023-04-29T00:29:57;835.40;;;780.38;;
3591;SDS011;1810;48.720;9.094;2023-04-29T00:32:25;809.22;;;756.83;;
3591;SDS011;1810;48.720;9.094;2023-04-29T00:34:54;833.50;;;779.00;;
3591;SDS011;1810;48.720;9.094;2023-04-29T00:37:22;818.67;;;765.60;;
3591;SDS011;1810;48.720;9.094;2023-04-29T00:39:50;813.17;;;760.25;;
3591;SDS011;1810;48.720;9.094;2023-04-29T00:42:19;856.90;;;798.72;;
3591;SDS011;1810;48.720;9.094;2023-04-29T00:44:49;806.45;;;754.13;;
3591;SDS011;1810;48.720;9.094;2023-04-29T00:47:17;827.80;;;773.50;;
3591;SDS011;1810;48.720;9.094;2023-04-29T00:49:46;807.72;;;755.90;;
3591;SDS011;1810;48.720;9.094;2023-04-29T00:52:14;812.85;;;760.25;;
3591;SDS011;1810;48.720;9.094;2023-04-29T00:54:44;825.60;;;771.15;;
3591;SDS011;1810;48.720;9.094;2023-04-29T00:57:13;834.55;;;779.63;;
3591;SDS011;1810;48.720;9.094;2023-04-29T00:59:42;797.45;;;746.20;;
3591;SDS011;1810;48.720;9.094;2023-04-29T01:02:12;816.78;;;763.22;;
3591;SDS011;1810;48.720;9.094;2023-04-29T01:04:40;835.90;;;780.75;;
3591;SDS011;1810;48.720;9.094;2023-04-29T01:07:12;815.42;;;761.97;;
3591;SDS011;1810;48.720;9.094;2023-04-29T01:09:46;821.50;;;767.53;;
3591;SDS011;1810;48.720;9.094;2023-04-29T01:12:20;821.20;;;767.97;;
3591;SDS011;1810;48.720;9.094;2023-04-29T01:14:58;818.45;;;764.78;;
3591;SDS011;1810;48.720;9.094;2023-04-29T01:17:35;818.92;;;765.83;;
3591;SDS011;1810;48.720;9.094;2023-04-29T01:20:08;826.50;;;772.22;;
3591;SDS011;1810;48.720;9.094;2023-04-29T01:22:36;827.08;;;772.63;;
3591;SDS011;1810;48.720;9.094;2023-04-29T01:25:07;852.13;;;795.67;;
3591;SDS011;1810;48.720;9.094;2023-04-29T01:27:36;824.90;;;771.38;;
3591;SDS011;1810;48.720;9.094;2023-04-29T01:30:09;842.30;;;786.97;;
3591;SDS011;1810;48.720;9.094;2023-04-29T01:32:45;819.08;;;765.20;;
3591;SDS011;1810;48.720;9.094;2023-04-29T01:35:23;833.22;;;778.72;;
3591;SDS011;1810;48.720;9.094;2023-04-29T01:37:59;826.45;;;771.78;;
3591;SDS011;1810;48.720;9.094;2023-04-29T01:40:33;812.08;;;759.03;;
3591;SDS011;1810;48.720;9.094;2023-04-29T01:43:06;826.70;;;772.10;;
3591;SDS011;1810;48.720;9.094;2023-04-29T01:45:37;840.95;;;785.40;;
3591;SDS011;1810;48.720;9.094;2023-04-29T01:48:07;828.30;;;774.30;;
3591;SDS011;1810;48.720;9.094;2023-04-29T01:50:36;835.33;;;779.85;;
3591;SDS011;1810;48.720;9.094;2023-04-29T01:53:04;789.92;;;738.75;;
3591;SDS011;1810;48.720;9.094;2023-04-29T01:55:34;812.65;;;760.50;;
3591;SDS011;1810;48.720;9.094;2023-04-29T01:58:03;834.15;;;779.63;;
3591;SDS011;1810;48.720;9.094;2023-04-29T02:00:31;797.63;;;746.70;;
3591;SDS011;1810;48.720;9.094;2023-04-29T02:03:00;803.83;;;752.22;;
3591;SDS011;1810;48.720;9.094;2023-04-29T02:05:28;807.85;;;755.20;;
3591;SDS011;1810;48.720;9.094;2023-04-29T02:07:59;816.40;;;763.25;;
3591;SDS011;1810;48.720;9.094;2023-04-29T02:10:28;828.75;;;774.13;;
3591;SDS011;1810;48.720;9.094;2023-04-29T02:12:57;848.00;;;792.50;;
3591;SDS011;1810;48.720;9.094;2023-04-29T02:15:26;827.58;;;773.35;;
3591;SDS011;1810;48.720;9.094;2023-04-29T02:17:54;834.38;;;779.17;;
3591;SDS011;1810;48.720;9.094;2023-04-29T02:20:23;815.25;;;762.65;;
3591;SDS011;1810;48.720;9.094;2023-04-29T02:22:52;838.33;;;783.50;;
3591;SDS011;1810;48.720;9.094;2023-04-29T02:25:20;824.92;;;770.92;;
3591;SDS011;1810;48.720;9.094;2023-04-29T02:27:48;841.97;;;786.90;;
3591;SDS011;1810;48.720;9.094;2023-04-29T02:30:18;799.13;;;748.15;;
3591;SDS011;1810;48.720;9.094;2023-04-29T02:32:46;846.95;;;789.97;;
3591;SDS011;1810;48.720;9.094;2023-04-29T02:35:15;827.65;;;773.70;;
3591;SDS011;1810;48.720;9.094;2023-04-29T02:37:43;813.47;;;760.70;;
3591;SDS011;1810;48.720;9.094;2023-04-29T02:40:12;766.13;;;717.65;;
3591;SDS011;1810;48.720;9.094;2023-04-29T02:42:40;796.10;;;744.08;;
3591;SDS011;1810;48.720;9.094;2023-04-29T02:45:09;812.17;;;758.80;;
3591;SDS011;1810;48.720;9.094;2023-04-29T02:47:39;818.97;;;765.90;;
3591;SDS011;1810;48.720;9.094;2023-04-29T02:50:09;822.60;;;768.97;;
3591;SDS011;1810;48.720;9.094;2023-04-29T02:52:37;803.28;;;750.90;;
3591;SDS011;1810;48.720;9.094;2023-04-29T02:55:07;821.53;;;767.60;;
3591;SDS011;1810;48.720;9.094;2023-04-29T02:57:35;822.33;;;768.58;;
3591;SDS011;1810;48.720;9.094;2023-04-29T03:00:04;806.75;;;754.50;;
3591;SDS011;1810;48.720;9.094;2023-04-29T03:02:34;801.15;;;749.33;;
3591;SDS011;1810;48.720;9.094;2023-04-29T03:05:04;828.40;;;774.85;;
3591;SDS011;1810;48.720;9.094;2023-04-29T03:07:33;806.42;;;754.22;;
3591;SDS011;1810;48.720;9.094;2023-04-29T03:10:02;800.55;;;749.15;;
3591;SDS011;1810;48.720;9.094;2023-04-29T03:12:31;820.33;;;766.92;;
3591;SDS011;1810;48.720;9.094;2023-04-29T03:14:59;813.60;;;760.78;;
3591;SDS011;1810;48.720;9.094;2023-04-29T03:17:28;822.88;;;769.22;;
3591;SDS011;1810;48.720;9.094;2023-04-29T03:19:57;835.83;;;780.88;;
3591;SDS011;1810;48.720;9.094;2023-04-29T03:22:26;818.45;;;764.78;;
3591;SDS011;1810;48.720;9.094;2023-04-29T03:24:55;799.38;;;747.42;;
3591;SDS011;1810;48.720;9.094;2023-04-29T03:27:23;806.65;;;753.92;;
3591;SDS011;1810;48.720;9.094;2023-04-29T03:29:51;815.97;;;763.58;;
3591;SDS011;1810;48.720;9.094;2023-04-29T03:32:20;816.25;;;763.25;;
3591;SDS011;1810;48.720;9.094;2023-04-29T03:34:49;796.90;;;745.17;;
3591;SDS011;1810;48.720;9.094;2023-04-29T03:37:17;801.67;;;749.70;;
3591;SDS011;1810;48.720;9.094;2023-04-29T03:39:47;829.90;;;776.08;;
3591;SDS011;1810;48.720;9.094;2023-04-29T03:42:16;811.88;;;758.72;;
3591;SDS011;1810;48.720;9.094;2023-04-29T03:44:44;827.53;;;772.78;;
3591;SDS011;1810;48.720;9.094;2023-04-29T03:47:13;827.38;;;773.25;;
3591;SDS011;1810;48.720;9.094;2023-04-29T03:49:41;807.55;;;755.80;;
3591;SDS011;1810;48.720;9.094;2023-04-29T03:52:09;819.65;;;765.60;;
3591;SDS011;1810;48.720;9.094;2023-04-29T03:54:38;816.50;;;762.92;;
3591;SDS011;1810;48.720;9.094;2023-04-29T03:57:08;848.50;;;792.20;;
3591;SDS011;1810;48.720;9.094;2023-04-29T03:59:36;829.35;;;775.13;;
3591;SDS011;1810;48.720;9.094;2023-04-29T04:02:05;821.55;;;767.70;;
3591;SDS011;1810;48.720;9.094;2023-04-29T04:04:33;812.85;;;760.03;;
3591;SDS011;1810;48.720;9.094;2023-04-29T04:07:02;807.03;;;755.00;;
3591;SDS011;1810;48.720;9.094;2023-04-29T04:09:31;785.58;;;735.72;;
3591;SDS011;1810;48.720;9.094;2023-04-29T04:11:59;812.67;;;759.67;;
3591;SDS011;1810;48.720;9.094;2023-04-29T04:14:29;807.25;;;754.85;;
3591;SDS011;1810;48.720;9.094;2023-04-29T04:16:58;761.28;;;713.40;;
3591;SDS011;1810;48.720;9.094;2023-04-29T04:19:26;770.22;;;721.33;;
3591;SDS011;1810;48.720;9.094;2023-04-29T04:21:56;780.63;;;730.92;;
3591;SDS011;1810;48.720;9.094;2023-04-29T04:24:24;827.88;;;774.03;;
3591;SDS011;1810;48.720;9.094;2023-04-29T04:26:52;726.15;;;682.25;;
3591;SDS011;1810;48.720;9.094;2023-04-29T04:29:21;805.70;;;753.25;;
3591;SDS011;1810;48.720;9.094;2023-04-29T04:31:51;818.50;;;765.38;;
3591;SDS011;1810;48.720;9.094;2023-04-29T04:34:19;797.33;;;746.13;;
3591;SDS011;1810;48.720;9.094;2023-04-29T04:36:47;788.20;;;737.50;;
3591;SDS011;1810;48.720;9.094;2023-04-29T04:39:16;737.25;;;691.88;;
3591;SDS011;1810;48.720;9.094;2023-04-29T04:41:45;762.72;;;715.10;;
3591;SDS011;1810;48.720;9.094;2023-04-29T04:44:13;729.00;;;684.42;;
3591;SDS011;1810;48.720;9.094;2023-04-29T04:46:41;783.75;;;733.95;;
3591;SDS011;1810;48.720;9.094;2023-04-29T04:49:11;768.80;;;720.45;;
3591;SDS011;1810;48.720;9.094;2023-04-29T04:51:42;752.65;;;705.28;;
3591;SDS011;1810;48.720;9.094;2023-04-29T04:54:11;753.80;;;706.22;;
3591;SDS011;1810;48.720;9.094;2023-04-29T04:56:39;751.75;;;704.42;;
3591;SDS011;1810;48.720;9.094;2023-04-29T04:59:07;743.33;;;696.42;;
3591;SDS011;1810;48.720;9.094;2023-04-29T05:01:36;734.20;;;688.80;;
3591;SDS011;1810;48.720;9.094;2023-04-29T05:04:04;722.20;;;677.88;;
3591;SDS011;1810;48.720;9.094;2023-04-29T05:06:34;684.88;;;644.78;;
3591;SDS011;1810;48.720;9.094;2023-04-29T05:09:03;690.03;;;649.03;;
3591;SDS011;1810;48.720;9.094;2023-04-29T05:11:32;716.75;;;672.83;;
3591;SDS011;1810;48.720;9.094;2023-04-29T05:14:00;722.33;;;678.10;;
3591;SDS011;1810;48.720;9.094;2023-04-29T05:16:29;736.50;;;690.45;;
3591;SDS011;1810;48.720;9.094;2023-04-29T05:18:57;751.10;;;703.75;;
3591;SDS011;1810;48.720;9.094;2023-04-29T05:21:25;771.00;;;721.40;;
3591;SDS011;1810;48.720;9.094;2023-04-29T05:23:55;774.92;;;725.42;;
3591;SDS011;1810;48.720;9.094;2023-04-29T05:26:24;758.22;;;710.00;;
3591;SDS011;1810;48.720;9.094;2023-04-29T05:28:52;811.03;;;758.13;;
3591;SDS011;1810;48.720;9.094;2023-04-29T05:31:20;807.13;;;753.85;;
3591;SDS011;1810;48.720;9.094;2023-04-29T05:33:49;809.13;;;756.42;;
3591;SDS011;1810;48.720;9.094;2023-04-29T05:36:17;779.33;;;729.15;;
3591;SDS011;1810;48.720;9.094;2023-04-29T05:38:46;786.22;;;735.97;;
3591;SDS011;1810;48.720;9.094;2023-04-29T05:41:15;797.00;;;745.63;;
3591;SDS011;1810;48.720;9.094;2023-04-29T05:43:44;776.47;;;726.25;;
3591;SDS011;1810;48.720;9.094;2023-04-29T05:46:12;755.63;;;707.72;;
3591;SDS011;1810;48.720;9.094;2023-04-29T05:48:41;715.88;;;672.42;;
3591;SDS011;1810;48.720;9.094;2023-04-29T05:51:11;698.08;;;656.50;;
3591;SDS011;1810;48.720;9.094;2023-04-29T05:53:39;680.10;;;640.72;;
3591;SDS011;1810;48.720;9.094;2023-04-29T05:56:08;703.22;;;661.30;;
3591;SDS011;1810;48.720;9.094;2023-04-29T05:58:38;707.55;;;664.63;;
3591;SDS011;1810;48.720;9.094;2023-04-29T06:01:06;729.10;;;684.10;;
3591;SDS011;1810;48.720;9.094;2023-04-29T06:03:36;698.97;;;657.10;;
3591;SDS011;1810;48.720;9.094;2023-04-29T06:06:05;722.13;;;677.92;;
3591;SDS011;1810;48.720;9.094;2023-04-29T06:08:33;719.50;;;676.13;;
3591;SDS011;1810;48.720;9.094;2023-04-29T06:11:09;696.80;;;655.83;;
3591;SDS011;1810;48.720;9.094;2023-04-29T06:13:46;701.58;;;659.88;;
3591;SDS011;1810;48.720;9.094;2023-04-29T06:16:17;707.42;;;664.63;;
3591;SDS011;1810;48.720;9.094;2023-04-29T06:18:45;696.10;;;654.42;;
3591;SDS011;1810;48.720;9.094;2023-04-29T06:21:18;729.40;;;684.50;;
3591;SDS011;1810;48.720;9.094;2023-04-29T06:24:03;711.50;;;668.47;;
3591;SDS011;1810;48.720;9.094;2023-04-29T06:26:33;699.17;;;657.90;;
3591;SDS011;1810;48.720;9.094;2023-04-29T06:31:48;733.97;;;689.38;;
3591;SDS011;1810;48.720;9.094;2023-04-29T06:34:17;669.08;;;630.47;;
3591;SDS011;1810;48.720;9.094;2023-04-29T06:36:50;670.20;;;631.45;;
3591;SDS011;1810;48.720;9.094;2023-04-29T06:39:19;682.63;;;643.05;;
3591;SDS011;1810;48.720;9.094;2023-04-29T06:41:47;690.95;;;649.97;;
3591;SDS011;1810;48.720;9.094;2023-04-29T06:44:16;691.67;;;650.42;;
3591;SDS011;1810;48.720;9.094;2023-04-29T06:46:47;699.20;;;657.63;;
3591;SDS011;1810;48.720;9.094;2023-04-29T06:49:16;689.28;;;648.83;;
3591;SDS011;1810;48.720;9.094;2023-04-29T06:51:45;685.65;;;645.58;;
3591;SDS011;1810;48.720;9.094;2023-04-29T06:54:14;749.80;;;703.42;;
3591;SDS011;1810;48.720;9.094;2023-04-29T06:56:42;717.72;;;674.67;;
3591;SDS011;1810;48.720;9.094;2023-04-29T06:59:13;712.67;;;670.08;;
3591;SDS011;1810;48.720;9.094;2023-04-29T07:01:43;738.05;;;692.75;;
3591;SDS011;1810;48.720;9.094;2023-04-29T07:04:14;710.25;;;667.25;;
3591;SDS011;1810;48.720;9.094;2023-04-29T07:06:43;726.25;;;681.30;;
3591;SDS011;1810;48.720;9.094;2023-04-29T07:09:15;807.35;;;754.33;;
3591;SDS011;1810;48.720;9.094;2023-04-29T07:11:44;746.85;;;699.75;;
3591;SDS011;1810;48.720;9.094;2023-04-29T07:14:13;732.05;;;685.83;;
3591;SDS011;1810;48.720;9.094;2023-04-29T07:16:43;751.95;;;704.45;;
3591;SDS011;1810;48.720;9.094;2023-04-29T07:19:15;742.28;;;696.17;;
3591;SDS011;1810;48.720;9.094;2023-04-29T07:21:44;734.97;;;689.88;;
3591;SDS011;1810;48.720;9.094;2023-04-29T07:24:12;810.63;;;757.38;;
3591;SDS011;1810;48.720;9.094;2023-04-29T07:26:42;703.15;;;660.60;;
3591;SDS011;1810;48.720;9.094;2023-04-29T07:29:11;703.75;;;661.65;;
3591;SDS011;1810;48.720;9.094;2023-04-29T07:31:58;737.20;;;691.00;;
3591;SDS011;1810;48.720;9.094;2023-04-29T07:34:45;817.65;;;763.53;;
3591;SDS011;1810;48.720;9.094;2023-04-29T07:37:28;751.55;;;704.33;;
3591;SDS011;1810;48.720;9.094;2023-04-29T07:40:06;787.70;;;736.63;;
3591;SDS011;1810;48.720;9.094;2023-04-29T07:42:46;763.00;;;714.05;;
3591;SDS011;1810;48.720;9.094;2023-04-29T07:45:22;743.22;;;695.97;;
3591;SDS011;1810;48.720;9.094;2023-04-29T07:47:54;744.00;;;696.95;;
3591;SDS011;1810;48.720;9.094;2023-04-29T07:50:37;729.95;;;684.30;;
3591;SDS011;1810;48.720;9.094;2023-04-29T07:53:17;721.63;;;677.63;;
3591;SDS011;1810;48.720;9.094;2023-04-29T07:56:40;750.03;;;702.58;;
3591;SDS011;1810;48.720;9.094;2023-04-29T08:00:16;827.67;;;771.92;;
3591;SDS011;1810;48.720;9.094;2023-04-29T08:03:45;733.05;;;687.63;;
3591;SDS011;1810;48.720;9.094;2023-04-29T08:06:20;711.90;;;668.17;;
3591;SDS011;1810;48.720;9.094;2023-04-29T08:08:54;751.63;;;704.75;;
3591;SDS011;1810;48.720;9.094;2023-04-29T08:11:28;766.40;;;717.65;;
3591;SDS011;1810;48.720;9.094;2023-04-29T08:13:58;845.00;;;785.78;;
3591;SDS011;1810;48.720;9.094;2023-04-29T08:16:30;778.05;;;727.97;;
3591;SDS011;1810;48.720;9.094;2023-04-29T08:19:11;778.13;;;727.95;;
3591;SDS011;1810;48.720;9.094;2023-04-29T08:21:39;783.50;;;733.05;;
3591;SDS011;1810;48.720;9.094;2023-04-29T08:24:08;771.67;;;722.58;;
3591;SDS011;1810;48.720;9.094;2023-04-29T08:26:38;772.78;;;722.90;;
3591;SDS011;1810;48.720;9.094;2023-04-29T08:29:07;775.83;;;725.95;;
3591;SDS011;1810;48.720;9.094;2023-04-29T08:31:36;775.80;;;726.03;;
3591;SDS011;1810;48.720;9.094;2023-04-29T08:34:05;777.33;;;727.42;;
3591;SDS011;1810;48.720;9.094;2023-04-29T08:36:35;764.97;;;715.85;;
3591;SDS011;1810;48.720;9.094;2023-04-29T08:39:03;813.35;;;759.33;;
3591;SDS011;1810;48.720;9.094;2023-04-29T08:41:32;815.17;;;760.70;;
3591;SDS011;1810;48.720;9.094;2023-04-29T08:44:01;836.08;;;780.67;;
3591;SDS011;1810;48.720;9.094;2023-04-29T08:46:31;859.90;;;800.55;;
3591;SDS011;1810;48.720;9.094;2023-04-29T08:49:00;815.28;;;761.08;;
3591;SDS011;1810;48.720;9.094;2023-04-29T08:51:30;788.47;;;737.28;;
3591;SDS011;1810;48.720;9.094;2023-04-29T08:54:01;842.97;;;787.33;;
3591;SDS011;1810;48.720;9.094;2023-04-29T08:56:34;799.30;;;747.13;;
3591;SDS011;1810;48.720;9.094;2023-04-29T08:59:03;833.28;;;777.92;;
3591;SDS011;1810;48.720;9.094;2023-04-29T09:01:34;855.53;;;797.15;;
3591;SDS011;1810;48.720;9.094;2023-04-29T09:04:08;734.42;;;688.05;;
3591;SDS011;1810;48.720;9.094;2023-04-29T09:06:39;773.15;;;723.80;;
3591;SDS011;1810;48.720;9.094;2023-04-29T09:09:09;769.70;;;720.47;;
3591;SDS011;1810;48.720;9.094;2023-04-29T09:11:40;771.90;;;722.75;;
3591;SDS011;1810;48.720;9.094;2023-04-29T09:14:08;768.40;;;719.20;;
3591;SDS011;1810;48.720;9.094;2023-04-29T09:16:37;741.28;;;694.67;;
3591;SDS011;1810;48.720;9.094;2023-04-29T09:19:06;813.60;;;760.42;;
3591;SDS011;1810;48.720;9.094;2023-04-29T09:21:35;761.92;;;713.60;;
3591;SDS011;1810;48.720;9.094;2023-04-29T09:24:03;773.47;;;724.05;;
3591;SDS011;1810;48.720;9.094;2023-04-29T09:26:39;851.15;;;791.53;;
3591;SDS011;1810;48.720;9.094;2023-04-29T09:29:23;762.08;;;714.03;;
3591;SDS011;1810;48.720;9.094;2023-04-29T09:32:33;803.13;;;750.28;;
3591;SDS011;1810;48.720;9.094;2023-04-29T09:38:09;732.70;;;686.25;;
3591;SDS011;1810;48.720;9.094;2023-04-29T09:40:40;850.22;;;791.00;;
3591;SDS011;1810;48.720;9.094;2023-04-29T09:43:25;812.13;;;758.22;;
3591;SDS011;1810;48.720;9.094;2023-04-29T09:45:54;711.33;;;667.97;;
3591;SDS011;1810;48.720;9.094;2023-04-29T09:48:23;711.17;;;667.70;;
3591;SDS011;1810;48.720;9.094;2023-04-29T09:51:00;714.35;;;670.75;;
3591;SDS011;1810;48.720;9.094;2023-04-29T09:53:30;757.45;;;710.05;;
3591;SDS011;1810;48.720;9.094;2023-04-29T09:56:03;732.85;;;687.55;;
3591;SDS011;1810;48.720;9.094;2023-04-29T09:58:34;771.13;;;721.97;;
3591;SDS011;1810;48.720;9.094;2023-04-29T10:01:04;745.83;;;698.35;;
3591;SDS011;1810;48.720;9.094;2023-04-29T10:03:36;852.90;;;794.92;;
3591;SDS011;1810;48.720;9.094;2023-04-29T10:06:06;744.75;;;697.60;;
3591;SDS011;1810;48.720;9.094;2023-04-29T10:08:35;767.83;;;718.60;;
3591;SDS011;1810;48.720;9.094;2023-04-29T10:11:04;915.58;;;847.05;;
3591;SDS011;1810;48.720;9.094;2023-04-29T10:13:34;768.30;;;719.47;;
3591;SDS011;1810;48.720;9.094;2023-04-29T10:16:07;759.90;;;711.65;;
3591;SDS011;1810;48.720;9.094;2023-04-29T10:18:43;773.38;;;723.78;;
3591;SDS011;1810;48.720;9.094;2023-04-29T10:21:20;857.03;;;798.22;;
3591;SDS011;1810;48.720;9.094;2023-04-29T10:26:24;736.83;;;690.40;;
3591;SDS011;1810;48.720;9.094;2023-04-29T10:28:56;813.72;;;760.40;;
3591;SDS011;1810;48.720;9.094;2023-04-29T10:31:26;761.83;;;713.70;;
3591;SDS011;1810;48.720;9.094;2023-04-29T10:33:55;766.75;;;717.65;;
3591;SDS011;1810;48.720;9.094;2023-04-29T10:36:25;755.42;;;707.47;;
3591;SDS011;1810;48.720;9.094;2023-04-29T10:38:57;763.47;;;715.25;;
3591;SDS011;1810;48.720;9.094;2023-04-29T10:52:11;716.97;;;673.08;;
3591;SDS011;1810;48.720;9.094;2023-04-29T10:54:51;736.42;;;690.58;;
3591;SDS011;1810;48.720;9.094;2023-04-29T10:57:29;743.38;;;696.80;;
3591;SDS011;1810;48.720;9.094;2023-04-29T10:59:57;750.53;;;702.17;;
3591;SDS011;1810;48.720;9.094;2023-04-29T11:02:25;717.20;;;672.90;;
3591;SDS011;1810;48.720;9.094;2023-04-29T11:05:07;768.78;;;719.72;;
3591;SDS011;1810;48.720;9.094;2023-04-29T11:07:39;729.35;;;684.08;;
3591;SDS011;1810;48.720;9.094;2023-04-29T11:10:09;742.97;;;695.80;;
3591;SDS011;1810;48.720;9.094;2023-04-29T11:12:40;750.15;;;702.85;;
3591;SDS011;1810;48.720;9.094;2023-04-29T11:15:10;744.83;;;697.92;;
3591;SDS011;1810;48.720;9.094;2023-04-29T11:17:45;756.03;;;707.85;;
3591;SDS011;1810;48.720;9.094;2023-04-29T11:20:19;727.28;;;682.00;;
3591;SDS011;1810;48.720;9.094;2023-04-29T11:23:56;788.67;;;738.05;;
3591;SDS011;1810;48.720;9.094;2023-04-29T11:26:25;755.45;;;707.38;;
3591;SDS011;1810;48.720;9.094;2023-04-29T11:28:55;739.72;;;693.08;;
3591;SDS011;1810;48.720;9.094;2023-04-29T11:31:29;759.30;;;711.38;;
3591;SDS011;1810;48.720;9.094;2023-04-29T11:33:58;681.25;;;641.20;;
3591;SDS011;1810;48.720;9.094;2023-04-29T11:36:26;643.42;;;606.67;;
3591;SDS011;1810;48.720;9.094;2023-04-29T11:38:56;661.13;;;622.65;;
3591;SDS011;1810;48.720;9.094;2023-04-29T11:41:27;708.55;;;665.13;;
3591;SDS011;1810;48.720;9.094;2023-04-29T11:43:57;765.95;;;717.35;;
3591;SDS011;1810;48.720;9.094;2023-04-29T11:46:29;757.78;;;709.95;;
3591;SDS011;1810;48.720;9.094;2023-04-29T11:48:57;679.22;;;639.20;;
3591;SDS011;1810;48.720;9.094;2023-04-29T11:51:26;706.40;;;663.65;;
3591;SDS011;1810;48.720;9.094;2023-04-29T11:53:56;700.88;;;658.60;;
3591;SDS011;1810;48.720;9.094;2023-04-29T11:56:25;738.83;;;693.05;;
3591;SDS011;1810;48.720;9.094;2023-04-29T11:58:53;749.80;;;702.15;;
3591;SDS011;1810;48.720;9.094;2023-04-29T12:01:24;790.03;;;738.63;;
3591;SDS011;1810;48.720;9.094;2023-04-29T12:03:55;769.90;;;720.83;;
3591;SDS011;1810;48.720;9.094;2023-04-29T12:06:26;803.47;;;751.38;;
3591;SDS011;1810;48.720;9.094;2023-04-29T12:08:58;675.22;;;635.60;;
3591;SDS011;1810;48.720;9.094;2023-04-29T12:11:29;696.53;;;654.97;;
3591;SDS011;1810;48.720;9.094;2023-04-29T12:13:57;667.28;;;628.50;;
3591;SDS011;1810;48.720;9.094;2023-04-29T12:16:29;661.20;;;622.80;;
3591;SDS011;1810;48.720;9.094;2023-04-29T12:18:58;670.42;;;630.45;;
3591;SDS011;1810;48.720;9.094;2023-04-29T12:21:27;842.95;;;786.40;;
3591;SDS011;1810;48.720;9.094;2023-04-29T12:23:59;802.22;;;749.85;;
3591;SDS011;1810;48.720;9.094;2023-04-29T12:26:29;765.53;;;716.53;;
3591;SDS011;1810;48.720;9.094;2023-04-29T12:28:58;726.75;;;681.72;;
3591;SDS011;1810;48.720;9.094;2023-04-29T12:31:33;751.30;;;703.42;;
3591;SDS011;1810;48.720;9.094;2023-04-29T12:34:02;806.30;;;753.47;;
3591;SDS011;1810;48.720;9.094;2023-04-29T12:36:46;770.13;;;720.95;;
3591;SDS011;1810;48.720;9.094;2023-04-29T12:39:16;770.92;;;721.65;;
3591;SDS011;1810;48.720;9.094;2023-04-29T12:41:45;730.85;;;685.22;;
3591;SDS011;1810;48.720;9.094;2023-04-29T12:44:13;755.05;;;706.72;;
3591;SDS011;1810;48.720;9.094;2023-04-29T12:46:43;764.92;;;715.65;;
3591;SDS011;1810;48.720;9.094;2023-04-29T12:49:26;764.22;;;715.25;;
3591;SDS011;1810;48.720;9.094;2023-04-29T12:52:06;876.05;;;815.72;;
3591;SDS011;1810;48.720;9.094;2023-04-29T12:54:37;792.00;;;740.08;;
3591;SDS011;1810;48.720;9.094;2023-04-29T12:57:06;746.78;;;699.65;;
3591;SDS011;1810;48.720;9.094;2023-04-29T12:59:36;842.50;;;784.92;;
3591;SDS011;1810;48.720;9.094;2023-04-29T13:02:04;765.28;;;716.38;;
3591;SDS011;1810;48.720;9.094;2023-04-29T13:04:33;813.70;;;760.45;;
3591;SDS011;1810;48.720;9.094;2023-04-29T13:07:04;752.78;;;705.75;;
3591;SDS011;1810;48.720;9.094;2023-04-29T13:09:33;757.08;;;709.33;;
3591;SDS011;1810;48.720;9.094;2023-04-29T13:12:04;749.78;;;702.20;;
3591;SDS011;1810;48.720;9.094;2023-04-29T13:14:33;733.13;;;686.90;;
3591;SDS011;1810;48.720;9.094;2023-04-29T13:17:01;758.60;;;710.28;;
3591;SDS011;1810;48.720;9.094;2023-04-29T13:19:30;779.00;;;728.67;;
3591;SDS011;1810;48.720;9.094;2023-04-29T13:22:16;733.20;;;687.35;;
3591;SDS011;1810;48.720;9.094;2023-04-29T13:24:44;731.33;;;685.78;;
3591;SDS011;1810;48.720;9.094;2023-04-29T13:27:14;789.80;;;738.45;;
3591;SDS011;1810;48.720;9.094;2023-04-29T13:29:43;710.47;;;667.20;;
3591;SDS011;1810;48.720;9.094;2023-04-29T13:32:11;677.42;;;637.78;;
3591;SDS011;1810;48.720;9.094;2023-04-29T13:34:43;690.75;;;649.58;;
3591;SDS011;1810;48.720;9.094;2023-04-29T13:37:11;714.55;;;671.45;;
3591;SDS011;1810;48.720;9.094;2023-04-29T13:39:40;620.53;;;586.70;;
3591;SDS011;1810;48.720;9.094;2023-04-29T13:42:16;660.30;;;622.95;;
3591;SDS011;1810;48.720;9.094;2023-04-29T13:44:45;741.78;;;695.13;;
3591;SDS011;1810;48.720;9.094;2023-04-29T13:47:29;711.88;;;669.58;;
3591;SDS011;1810;48.720;9.094;2023-04-29T13:49:59;676.95;;;637.15;;
3591;SDS011;1810;48.720;9.094;2023-04-29T13:52:47;689.88;;;648.83;;
3591;SDS011;1810;48.720;9.094;2023-04-29T13:55:19;674.70;;;634.97;;
3591;SDS011;1810;48.720;9.094;2023-04-29T13:57:52;702.88;;;661.00;;
3591;SDS011;1810;48.720;9.094;2023-04-29T14:00:26;693.58;;;652.30;;
3591;SDS011;1810;48.720;9.094;2023-04-29T14:02:58;711.63;;;668.40;;
3591;SDS011;1810;48.720;9.094;2023-04-29T14:05:27;680.60;;;640.03;;
3591;SDS011;1810;48.720;9.094;2023-04-29T14:07:56;668.00;;;628.88;;
3591;SDS011;1810;48.720;9.094;2023-04-29T14:10:25;655.80;;;618.50;;
3591;SDS011;1810;48.720;9.094;2023-04-29T14:12:55;693.28;;;652.33;;
3591;SDS011;1810;48.720;9.094;2023-04-29T14:15:23;661.20;;;623.45;;
3591;SDS011;1810;48.720;9.094;2023-04-29T14:17:52;657.13;;;619.92;;
3591;SDS011;1810;48.720;9.094;2023-04-29T14:20:20;665.83;;;627.25;;
3591;SDS011;1810;48.720;9.094;2023-04-29T14:22:49;657.05;;;619.95;;
3591;SDS011;1810;48.720;9.094;2023-04-29T14:25:18;651.25;;;614.88;;
3591;SDS011;1810;48.720;9.094;2023-04-29T14:27:46;645.33;;;608.88;;
3591;SDS011;1810;48.720;9.094;2023-04-29T14:30:16;695.33;;;654.28;;
3591;SDS011;1810;48.720;9.094;2023-04-29T14:32:45;650.30;;;613.92;;
3591;SDS011;1810;48.720;9.094;2023-04-29T14:35:13;678.65;;;638.40;;
3591;SDS011;1810;48.720;9.094;2023-04-29T14:37:42;714.08;;;670.13;;
3591;SDS011;1810;48.720;9.094;2023-04-29T14:40:11;672.92;;;634.03;;
3591;SDS011;1810;48.720;9.094;2023-04-29T14:42:40;700.70;;;658.17;;
3591;SDS011;1810;48.720;9.094;2023-04-29T14:45:09;852.72;;;791.72;;
3591;SDS011;1810;48.720;9.094;2023-04-29T14:47:40;695.90;;;653.88;;
3591;SDS011;1810;48.720;9.094;2023-04-29T14:50:10;700.15;;;657.90;;
3591;SDS011;1810;48.720;9.094;2023-04-29T14:52:39;683.53;;;643.10;;
3591;SDS011;1810;48.720;9.094;2023-04-29T14:55:07;714.30;;;670.40;;
3591;SDS011;1810;48.720;9.094;2023-04-29T14:57:36;782.88;;;731.63;;
3591;SDS011;1810;48.720;9.094;2023-04-29T15:00:05;650.63;;;613.22;;
3591;SDS011;1810;48.720;9.094;2023-04-29T15:02:34;683.55;;;642.95;;